| time (UTC) | temp F | wind direction | speed MPH | gust MPH | rain 1hr in | rain 24hr in | rain mn in | humidity % | barometer mb |
| 20260505124631 | 36 | 292 | 2.0 | 10.0 | 0.02 | 0.26 | 0.10 | 94 | 1007.3 |
| 20260505124536 | 37 | 38 | 2.0 | 5.0 | 0.02 | 0.26 | 0.10 | 94 | 1013.5 |
| 20260505124139 | 36 | 30 | 2.0 | 8.0 | 0.02 | 0.26 | 0.10 | 93 | 1007.3 |
| 20260505124043 | 37 | 327 | 3.0 | 8.0 | 0.02 | 0.26 | 0.10 | 93 | 1013.5 |
| 20260505123556 | 36 | 315 | 3.0 | 8.0 | 0.03 | 0.26 | 0.10 | 93 | 1007.1 |
| 20260505123540 | 37 | 345 | 4.0 | 8.0 | 0.03 | 0.26 | 0.10 | 93 | 1013.4 |
| 20260505123121 | 37 | 302 | 2.0 | 6.0 | 0.03 | 0.25 | 0.09 | 93 | 1007.0 |
| 20260505123038 | 37 | 309 | 3.0 | 6.0 | 0.03 | 0.25 | 0.09 | 93 | 1013.3 |
| 20260505122559 | 37 | 45 | 3.0 | 6.0 | 0.03 | 0.25 | 0.09 | 92 | 1007.1 |
| 20260505122533 | 38 | 15 | 4.0 | 7.0 | 0.03 | 0.25 | 0.09 | 92 | 1013.4 |
| 20260505122130 | 38 | 340 | 2.0 | 6.0 | 0.03 | 0.25 | 0.09 | 93 | 1007.0 |
| 20260505122055 | 38 | 23 | 2.0 | 6.0 | 0.04 | 0.25 | 0.09 | 93 | 1013.3 |
| 20260505121630 | 38 | 34 | 2.0 | 6.0 | 0.04 | 0.25 | 0.09 | 93 | 1006.9 |
| 20260505121530 | 38 | 30 | 2.0 | 6.0 | 0.04 | 0.25 | 0.09 | 93 | 1013.2 |
| 20260505121111 | 38 | 43 | 3.0 | 6.0 | 0.04 | 0.25 | 0.09 | 93 | 1006.8 |
| 20260505121032 | 38 | 42 | 3.0 | 6.0 | 0.04 | 0.25 | 0.09 | 94 | 1013.1 |
| 20260505120618 | 38 | 22 | 2.0 | 11.0 | 0.04 | 0.25 | 0.09 | 93 | 1006.6 |
| 20260505120528 | 38 | 42 | 2.0 | 11.0 | 0.04 | 0.25 | 0.09 | 93 | 1013.0 |
| 20260505120054 | 38 | 11 | 5.0 | 11.0 | 0.03 | 0.24 | 0.08 | 93 | 1013.0 |
| 20260505120052 | 38 | 25 | 5.0 | 11.0 | 0.03 | 0.24 | 0.08 | 93 | 1006.6 |
| 20260505115628 | 38 | 9 | 3.0 | 11.0 | 0.03 | 0.24 | 0.08 | 93 | 1006.5 |
| 20260505115550 | 38 | 327 | 3.0 | 11.0 | 0.03 | 0.24 | 0.08 | 93 | 1012.9 |
| 20260505115059 | 38 | 346 | 4.0 | 11.0 | 0.03 | 0.24 | 0.08 | 93 | 1006.4 |
| 20260505115028 | 38 | 32 | 5.0 | 12.0 | 0.03 | 0.24 | 0.08 | 92 | 1012.8 |
| 20260505114624 | 38 | 23 | 4.0 | 12.0 | 0.03 | 0.24 | 0.08 | 93 | 1006.2 |
| 20260505114552 | 39 | 15 | 5.0 | 12.0 | 0.03 | 0.24 | 0.08 | 93 | 1012.7 |
| 20260505114048 | 39 | 45 | 4.0 | 12.0 | 0.02 | 0.23 | 0.07 | 93 | 1012.6 |
| 20260505114016 | 39 | 36 | 4.0 | 12.0 | 0.02 | 0.23 | 0.07 | 93 | 1006.1 |
| 20260505113619 | 39 | 309 | 4.0 | 7.0 | 0.02 | 0.23 | 0.07 | 93 | 1006.2 |
| 20260505113541 | 40 | 30 | 4.0 | 7.0 | 0.02 | 0.23 | 0.07 | 93 | 1012.5 |
| 20260505113057 | 39 | 344 | 3.0 | 11.0 | 0.01 | 0.22 | 0.06 | 93 | 1006.1 |
| 20260505113038 | 40 | 17 | 3.0 | 11.0 | 0.01 | 0.22 | 0.06 | 93 | 1012.5 |
| 20260505112633 | 39 | 290 | 3.0 | 11.0 | 0.02 | 0.22 | 0.06 | 93 | 1006.0 |
| 20260505112605 | 40 | 32 | 4.0 | 11.0 | 0.02 | 0.22 | 0.06 | 93 | 1012.5 |
| 20260505112148 | 39 | 30 | 2.0 | 13.0 | 0.01 | 0.21 | 0.06 | 93 | 1006.0 |
| 20260505112113 | 40 | 22 | 4.0 | 13.0 | 0.01 | 0.21 | 0.05 | 93 | 1012.4 |
| 20260505111606 | 40 | 5 | 4.0 | 13.0 | 0.01 | 0.21 | 0.05 | 93 | 1005.9 |
| 20260505111549 | 40 | 333 | 5.0 | 13.0 | 0.02 | 0.21 | 0.05 | 93 | 1012.4 |
| 20260505111128 | 40 | 15 | 3.0 | 9.0 | 0.02 | 0.21 | 0.05 | 93 | 1005.8 |
| 20260505111045 | 40 | 26 | 3.0 | 9.0 | 0.02 | 0.21 | 0.05 | 93 | 1012.4 |
| 20260505110602 | 40 | 5 | 2.0 | 9.0 | 0.02 | 0.21 | 0.05 | 93 | 1005.7 |
| 20260505110541 | 40 | 355 | 4.0 | 9.0 | 0.02 | 0.21 | 0.05 | 93 | 1012.2 |
| 20260505110136 | 40 | 27 | 4.0 | 8.0 | 0.03 | 0.21 | 0.05 | 93 | 1005.6 |
| 20260505110111 | 40 | 360 | 4.0 | 9.0 | 0.03 | 0.21 | 0.05 | 93 | 1012.0 |
| 20260505102117 | 42 | 16 | 4.0 | 9.0 | 0.04 | 0.20 | 0.04 | 93 | 1004.6 |
| 20260505102047 | 43 | 56 | 4.0 | 9.0 | 0.04 | 0.20 | 0.04 | 93 | 1011.3 |
| 20260505101541 | 43 | 9 | 3.0 | 9.0 | 0.03 | 0.19 | 0.03 | 93 | 1011.2 |
| 20260505101506 | 43 | 261 | 2.0 | 8.0 | 0.03 | 0.19 | 0.03 | 93 | 1004.5 |
| 20260505101114 | 43 | 28 | 2.0 | 8.0 | 0.03 | 0.19 | 0.03 | 94 | 1004.6 |
| 20260505101035 | 43 | 17 | 3.0 | 8.0 | 0.03 | 0.19 | 0.03 | 94 | 1011.3 |
| 20260505100647 | 43 | 26 | 1.0 | 5.0 | 0.03 | 0.19 | 0.03 | 94 | 1004.6 |
| 20260505100604 | 43 | 9 | 2.0 | 5.0 | 0.03 | 0.19 | 0.03 | 94 | 1011.2 |
| 20260505100105 | 43 | 24 | 2.0 | 5.0 | 0.02 | 0.18 | 0.02 | 94 | 1004.4 |
| 20260505100036 | 43 | 309 | 3.0 | 5.0 | 0.02 | 0.18 | 0.02 | 94 | 1011.1 |
| 20260505095635 | 43 | 296 | 2.0 | 6.0 | 0.02 | 0.18 | 0.02 | 93 | 1004.2 |
| 20260505095559 | 43 | 292 | 2.0 | 6.0 | 0.02 | 0.18 | 0.02 | 93 | 1010.9 |
| 20260505095034 | 43 | 38 | 3.0 | 6.0 | 0.01 | 0.17 | 0.01 | 93 | 1011.1 |
| 20260505095008 | 43 | 15 | 3.0 | 6.0 | 0.01 | 0.17 | 0.01 | 93 | 1004.3 |
| 20260505094609 | 43 | 293 | 2.0 | 7.0 | 0.01 | 0.17 | 0.01 | 93 | 1004.3 |
| 20260505094530 | 44 | 279 | 3.0 | 7.0 | 0.01 | 0.17 | 0.01 | 93 | 1011.1 |
| 20260505094048 | 43 | 304 | 2.0 | 8.0 | 0.00 | 0.16 | 0.00 | 92 | 1004.3 |
| 20260505094027 | 44 | 303 | 3.0 | 8.0 | 0.00 | 0.16 | 0.00 | 92 | 1011.1 |
| 20260505093615 | 44 | 5 | 2.0 | 8.0 | 0.00 | 0.16 | 0.00 | 92 | 1004.3 |
| 20260505093551 | 44 | 323 | 3.0 | 8.0 | 0.00 | 0.16 | 0.00 | 92 | 1011.1 |
| 20260505093127 | 44 | 313 | 2.0 | 6.0 | 0.00 | 0.16 | 0.00 | 92 | 1004.2 |
| 20260505093101 | 44 | 302 | 3.0 | 6.0 | 0.00 | 0.16 | 0.00 | 92 | 1011.0 |
| 20260505092546 | 45 | 340 | 2.0 | 8.0 | 0.00 | 0.16 | 0.00 | 91 | 1011.0 |
| 20260505092506 | 44 | 290 | 2.0 | 8.0 | 0.00 | 0.16 | 0.00 | 91 | 1004.1 |
| 20260505092115 | 45 | 24 | 1.0 | 8.0 | 0.00 | 0.16 | 0.00 | 91 | 1004.2 |
| 20260505092044 | 45 | 349 | 2.0 | 8.0 | 0.00 | 0.16 | 0.00 | 91 | 1011.0 |
| 20260505091638 | 45 | 20 | 3.0 | 8.0 | 0.00 | 0.16 | 0.00 | 90 | 1004.0 |
| 20260505091539 | 46 | 355 | 3.0 | 8.0 | 0.00 | 0.16 | 0.00 | 90 | 1010.7 |
| 20260505091106 | 47 | 286 | 4.0 | 8.0 | 0.00 | 0.16 | 0.00 | 90 | 1003.7 |
| 20260505091034 | 47 | 355 | 4.0 | 8.0 | 0.00 | 0.16 | 0.00 | 90 | 1010.7 |
| 20260505090641 | 48 | 336 | 1.0 | 5.0 | 0.00 | 0.16 | 0.00 | 93 | 1003.5 |
| 20260505090554 | 48 | 319 | 2.0 | 5.0 | 0.00 | 0.16 | 0.00 | 93 | 1010.5 |
| 20260505090057 | 48 | 41 | 1.0 | 5.0 | 0.00 | 0.16 | 0.00 | 93 | 1003.4 |
| 20260505090030 | 48 | 41 | 2.0 | 5.0 | 0.00 | 0.16 | 0.00 | 93 | 1010.4 |
| 20260505085628 | 48 | 355 | 0.0 | 2.0 | 0.00 | 0.16 | 0.00 | 94 | 1003.3 |
| 20260505085526 | 49 | 355 | 1.0 | 2.0 | 0.00 | 0.16 | 0.00 | 94 | 1010.3 |
| 20260505085102 | 48 | 355 | 0.0 | 2.0 | 0.00 | 0.16 | 0.00 | 94 | 1003.4 |
| 20260505085032 | 49 | 355 | 0.0 | 2.0 | 0.00 | 0.16 | 0.00 | 94 | 1010.5 |
| 20260505084632 | 48 | 355 | 0.0 | 2.0 | 0.00 | 0.16 | 0.00 | 94 | 1003.5 |
| 20260505084558 | 49 | 355 | 1.0 | 2.0 | 0.00 | 0.16 | 0.00 | 94 | 1010.5 |
| 20260505084147 | 48 | 347 | 1.0 | 2.0 | 0.00 | 0.16 | 0.00 | 94 | 1003.7 |
| 20260505084109 | 48 | 347 | 1.0 | 2.0 | 0.00 | 0.16 | 0.00 | 94 | 1010.6 |
| 20260505083605 | 48 | 238 | 0.0 | 2.0 | 0.00 | 0.16 | 0.00 | 94 | 1003.7 |
| 20260505083545 | 48 | 238 | 1.0 | 2.0 | 0.00 | 0.16 | 0.00 | 94 | 1010.7 |
| 20260505083135 | 48 | 207 | 0.0 | 1.0 | 0.00 | 0.16 | 0.00 | 94 | 1003.6 |
| 20260505083044 | 48 | 207 | 0.0 | 1.0 | 0.00 | 0.16 | 0.00 | 94 | 1010.6 |
| 20260505082612 | 48 | 165 | 0.0 | 1.0 | 0.00 | 0.16 | 0.00 | 94 | 1003.6 |
| 20260505082540 | 48 | 165 | 0.0 | 1.0 | 0.00 | 0.16 | 0.00 | 94 | 1010.7 |
| 20260505082039 | 48 | 165 | 0.0 | 1.0 | 0.00 | 0.16 | 0.00 | 94 | 1010.6 |
| 20260505082014 | 48 | 165 | 0.0 | 1.0 | 0.00 | 0.16 | 0.00 | 94 | 1003.6 |
| 20260505081620 | 48 | 165 | 0.0 | 0.0 | 0.00 | 0.16 | 0.00 | 94 | 1003.7 |
| 20260505081537 | 48 | 165 | 0.0 | 0.0 | 0.00 | 0.16 | 0.00 | 94 | 1010.8 |
| 20260505081049 | 48 | 165 | 0.0 | 0.0 | 0.00 | 0.16 | 0.00 | 94 | 1003.5 |
| 20260505081032 | 48 | 165 | 0.0 | 0.0 | 0.00 | 0.16 | 0.00 | 94 | 1010.6 |
| 20260505080613 | 48 | 165 | 0.0 | 0.0 | 0.00 | 0.16 | 0.00 | 94 | 1003.7 |
| 20260505080529 | 48 | 165 | 0.0 | 0.0 | 0.00 | 0.16 | 0.00 | 94 | 1010.7 |
| 20260505080046 | 48 | 165 | 0.0 | 0.0 | 0.00 | 0.16 | 0.00 | 93 | 1003.5 |
| 20260505080027 | 48 | 165 | 0.0 | 0.0 | 0.00 | 0.16 | 0.00 | 93 | 1010.6 |
| 20260505075616 | 47 | 165 | 0.0 | 0.0 | 0.00 | 0.16 | 0.00 | 93 | 1003.3 |
| 20260505075525 | 48 | 165 | 0.0 | 0.0 | 0.00 | 0.16 | 0.00 | 93 | 1010.5 |
| 20260505075152 | 47 | 165 | 0.0 | 0.0 | 0.00 | 0.16 | 0.00 | 93 | 1003.4 |
| 20260505075026 | 48 | 165 | 0.0 | 0.0 | 0.00 | 0.16 | 0.00 | 93 | 1010.6 |
| 20260505074608 | 47 | 165 | 0.0 | 0.0 | 0.00 | 0.16 | 0.00 | 93 | 1003.5 |
| 20260505074551 | 48 | 165 | 0.0 | 0.0 | 0.00 | 0.16 | 0.00 | 93 | 1010.6 |
| 20260505074113 | 48 | 165 | 0.0 | 0.0 | 0.00 | 0.16 | 0.00 | 93 | 1003.4 |
| 20260505074055 | 48 | 165 | 0.0 | 0.0 | 0.00 | 0.16 | 0.00 | 93 | 1010.5 |
| 20260505073617 | 48 | 165 | 0.0 | 0.0 | 0.00 | 0.16 | 0.00 | 93 | 1003.5 |
| 20260505073530 | 48 | 165 | 0.0 | 0.0 | 0.00 | 0.16 | 0.00 | 93 | 1010.7 |
| 20260505073034 | 48 | 165 | 0.0 | 1.0 | 0.00 | 0.16 | 0.00 | 93 | 1010.8 |
| 20260505073002 | 48 | 165 | 0.0 | 1.0 | 0.00 | 0.16 | 0.00 | 93 | 1003.7 |
| 20260505072615 | 48 | 165 | 0.0 | 1.0 | 0.00 | 0.16 | 0.00 | 93 | 1003.6 |
| 20260505072555 | 48 | 165 | 0.0 | 1.0 | 0.00 | 0.16 | 0.00 | 93 | 1010.8 |
| 20260505072123 | 47 | 165 | 0.0 | 2.0 | 0.00 | 0.16 | 0.00 | 93 | 1003.8 |
| 20260505072031 | 48 | 165 | 0.0 | 2.0 | 0.00 | 0.16 | 0.00 | 93 | 1010.9 |
| 20260505071603 | 47 | 165 | 0.0 | 2.0 | 0.00 | 0.16 | 0.00 | 93 | 1003.8 |
| 20260505071539 | 48 | 165 | 0.0 | 2.0 | 0.00 | 0.16 | 0.00 | 93 | 1011.1 |
| 20260505071127 | 47 | 193 | 0.0 | 2.0 | 0.00 | 0.16 | 0.00 | 93 | 1004.0 |
| 20260505071050 | 48 | 193 | 1.0 | 2.0 | 0.00 | 0.16 | 0.00 | 93 | 1011.1 |
| 20260505070549 | 48 | 194 | 0.0 | 3.0 | 0.00 | 0.16 | 0.00 | 93 | 1011.1 |
| 20260505070507 | 47 | 194 | 0.0 | 3.0 | 0.00 | 0.16 | 0.00 | 93 | 1004.0 |
| 20260505070117 | 47 | 194 | 0.0 | 3.0 | 0.00 | 0.16 | 0.00 | 93 | 1003.9 |
| 20260505070047 | 48 | 194 | 1.0 | 3.0 | 0.00 | 0.16 | 0.00 | 93 | 1011.0 |
| 20260505065631 | 47 | 176 | 0.0 | 2.0 | 0.00 | 0.16 | 0.00 | 93 | 1003.9 |
| 20260505065553 | 48 | 176 | 0.0 | 1.0 | 0.00 | 0.16 | 0.00 | 93 | 1011.0 |
| 20260505065110 | 47 | 176 | 0.0 | 2.0 | 0.00 | 0.16 | 0.00 | 93 | 1003.9 |
| 20260505065050 | 48 | 176 | 0.0 | 3.0 | 0.00 | 0.16 | 0.00 | 93 | 1011.1 |
| 20260505064631 | 47 | 176 | 0.0 | 3.0 | 0.00 | 0.16 | 0.00 | 93 | 1003.9 |
| 20260505064545 | 48 | 176 | 1.0 | 3.0 | 0.00 | 0.16 | 0.00 | 93 | 1011.1 |
| 20260505064111 | 47 | 186 | 0.0 | 3.0 | 0.00 | 0.16 | 0.00 | 93 | 1003.9 |
| 20260505064040 | 48 | 186 | 0.0 | 3.0 | 0.00 | 0.16 | 0.00 | 93 | 1011.1 |
| 20260505063643 | 47 | 192 | 0.0 | 3.0 | 0.00 | 0.16 | 0.00 | 93 | 1003.8 |
| 20260505063545 | 48 | 192 | 1.0 | 3.0 | 0.00 | 0.16 | 0.00 | 93 | 1011.1 |
| 20260505063053 | 48 | 187 | 0.0 | 2.0 | 0.00 | 0.16 | 0.00 | 93 | 1011.2 |
| 20260505063005 | 47 | 187 | 0.0 | 2.0 | 0.00 | 0.16 | 0.00 | 93 | 1003.9 |
| 20260505062609 | 47 | 187 | 0.0 | 1.0 | 0.00 | 0.16 | 0.00 | 93 | 1004.0 |
| 20260505062533 | 48 | 187 | 0.0 | 1.0 | 0.00 | 0.16 | 0.00 | 93 | 1011.2 |
| 20260505062143 | 47 | 187 | 0.0 | 1.0 | 0.00 | 0.16 | 0.00 | 93 | 1004.0 |
| 20260505062104 | 48 | 187 | 0.0 | 1.0 | 0.00 | 0.16 | 0.00 | 93 | 1011.2 |
| 20260505061600 | 47 | 187 | 0.0 | 2.0 | 0.00 | 0.16 | 0.00 | 92 | 1004.0 |
| 20260505061541 | 48 | 187 | 0.0 | 3.0 | 0.00 | 0.16 | 0.00 | 93 | 1011.2 |
| 20260505061123 | 47 | 187 | 0.0 | 3.0 | 0.00 | 0.16 | 0.00 | 92 | 1004.0 |
| 20260505061035 | 48 | 187 | 1.0 | 3.0 | 0.00 | 0.16 | 0.00 | 92 | 1011.3 |
| 20260505060601 | 47 | 176 | 0.0 | 2.0 | 0.00 | 0.16 | 0.00 | 93 | 1004.0 |
| 20260505060529 | 48 | 176 | 1.0 | 2.0 | 0.00 | 0.16 | 0.00 | 92 | 1011.3 |
| 20260505060131 | 47 | 200 | 0.0 | 2.0 | 0.00 | 0.16 | 0.00 | 93 | 1004.0 |
| 20260505060053 | 48 | 200 | 1.0 | 2.0 | 0.00 | 0.16 | 0.00 | 93 | 1011.3 |
| 20260505055603 | 47 | 225 | 0.0 | 2.0 | 0.00 | 0.16 | 0.16 | 93 | 1004.1 |
| 20260505055546 | 48 | 225 | 0.0 | 2.0 | 0.00 | 0.16 | 0.16 | 93 | 1011.4 |
| 20260505055131 | 47 | 238 | 0.0 | 2.0 | 0.00 | 0.16 | 0.16 | 93 | 1004.0 |
| 20260505055041 | 48 | 238 | 0.0 | 2.0 | 0.00 | 0.16 | 0.16 | 93 | 1011.4 |
| 20260505054629 | 47 | 238 | 0.0 | 3.0 | 0.00 | 0.16 | 0.16 | 92 | 1004.1 |
| 20260505054531 | 48 | 238 | 1.0 | 3.0 | 0.00 | 0.16 | 0.16 | 92 | 1011.6 |
| 20260505054143 | 47 | 244 | 0.0 | 3.0 | 0.00 | 0.16 | 0.16 | 92 | 1004.0 |
| 20260505054055 | 48 | 244 | 1.0 | 3.0 | 0.00 | 0.16 | 0.16 | 92 | 1011.3 |
| 20260505053559 | 47 | 166 | 0.0 | 2.0 | 0.01 | 0.16 | 0.16 | 92 | 1003.7 |
| 20260505053531 | 48 | 166 | 0.0 | 2.0 | 0.01 | 0.16 | 0.16 | 92 | 1011.1 |
| 20260505053127 | 47 | 178 | 0.0 | 3.0 | 0.01 | 0.16 | 0.16 | 92 | 1003.6 |
| 20260505053101 | 48 | 178 | 1.0 | 3.0 | 0.01 | 0.16 | 0.16 | 92 | 1011.1 |
| 20260505052634 | 48 | 152 | 0.0 | 3.0 | 0.02 | 0.16 | 0.16 | 92 | 1003.8 |
| 20260505052536 | 48 | 135 | 0.0 | 2.0 | 0.02 | 0.16 | 0.16 | 92 | 1011.3 |
| 20260505052109 | 48 | 170 | 0.0 | 3.0 | 0.02 | 0.16 | 0.16 | 92 | 1003.8 |
| 20260505052033 | 48 | 170 | 1.0 | 3.0 | 0.02 | 0.16 | 0.16 | 92 | 1011.3 |
| 20260505051531 | 48 | 170 | 1.0 | 3.0 | 0.03 | 0.16 | 0.16 | 92 | 1011.3 |
| 20260505051507 | 48 | 170 | 1.0 | 3.0 | 0.03 | 0.16 | 0.16 | 92 | 1003.8 |
| 20260505051114 | 48 | 179 | 1.0 | 2.0 | 0.03 | 0.16 | 0.16 | 92 | 1003.9 |
| 20260505051028 | 48 | 179 | 1.0 | 2.0 | 0.03 | 0.16 | 0.16 | 92 | 1011.5 |
| 20260505050550 | 48 | 207 | 0.0 | 2.0 | 0.03 | 0.16 | 0.16 | 91 | 1004.0 |
| 20260505050526 | 48 | 207 | 0.0 | 2.0 | 0.03 | 0.16 | 0.16 | 92 | 1011.6 |
| 20260505050119 | 48 | 207 | 0.0 | 2.0 | 0.04 | 0.16 | 0.16 | 92 | 1003.8 |
| 20260505041555 | 48 | 301 | 0.0 | 2.0 | 0.11 | 0.13 | 0.13 | 89 | 1004.0 |
| 20260505041527 | 48 | 301 | 0.0 | 2.0 | 0.11 | 0.13 | 0.13 | 89 | 1011.9 |
| 20260505041120 | 48 | 301 | 0.0 | 3.0 | 0.11 | 0.13 | 0.13 | 89 | 1004.0 |
| 20260505041051 | 48 | 301 | 0.0 | 3.0 | 0.11 | 0.13 | 0.13 | 89 | 1011.9 |
| 20260505040545 | 48 | 304 | 1.0 | 3.0 | 0.11 | 0.13 | 0.13 | 89 | 1011.8 |
| 20260505040512 | 48 | 304 | 0.0 | 3.0 | 0.11 | 0.13 | 0.13 | 89 | 1004.0 |
| 20260505040120 | 48 | 276 | 1.0 | 3.0 | 0.10 | 0.12 | 0.12 | 88 | 1003.9 |
| 20260505040038 | 48 | 275 | 1.0 | 3.0 | 0.10 | 0.12 | 0.12 | 88 | 1011.9 |
| 20260505035556 | 48 | 293 | 1.0 | 6.0 | 0.10 | 0.12 | 0.12 | 88 | 1003.9 |
| 20260505035533 | 49 | 292 | 1.0 | 6.0 | 0.10 | 0.12 | 0.12 | 87 | 1011.8 |
| 20260505035123 | 48 | 297 | 2.0 | 6.0 | 0.09 | 0.11 | 0.11 | 87 | 1003.9 |
| 20260505035030 | 49 | 304 | 2.0 | 6.0 | 0.09 | 0.11 | 0.11 | 87 | 1011.8 |
| 20260505034554 | 49 | 279 | 1.0 | 7.0 | 0.08 | 0.10 | 0.10 | 86 | 1011.9 |
| 20260505034510 | 49 | 279 | 1.0 | 7.0 | 0.08 | 0.10 | 0.10 | 86 | 1003.9 |
| 20260505034113 | 49 | 292 | 3.0 | 7.0 | 0.07 | 0.09 | 0.09 | 85 | 1003.8 |
| 20260505034039 | 50 | 280 | 3.0 | 7.0 | 0.07 | 0.09 | 0.09 | 85 | 1011.8 |
| 20260505033537 | 50 | 333 | 2.0 | 5.0 | 0.07 | 0.09 | 0.09 | 83 | 1012.4 |
| 20260505033512 | 50 | 350 | 2.0 | 5.0 | 0.07 | 0.09 | 0.09 | 82 | 1004.5 |
| 20260505033114 | 50 | 313 | 1.0 | 5.0 | 0.06 | 0.08 | 0.08 | 81 | 1003.8 |
| 20260505033034 | 51 | 325 | 1.0 | 5.0 | 0.06 | 0.08 | 0.08 | 81 | 1011.8 |
| 20260505032552 | 51 | 290 | 2.0 | 4.0 | 0.04 | 0.06 | 0.06 | 79 | 1003.7 |
| 20260505032532 | 52 | 304 | 2.0 | 4.0 | 0.03 | 0.05 | 0.05 | 78 | 1011.7 |
| 20260505032123 | 52 | 32 | 1.0 | 4.0 | 0.01 | 0.03 | 0.04 | 77 | 1003.4 |
| 20260505032030 | 52 | 346 | 1.0 | 4.0 | 0.01 | 0.03 | 0.03 | 77 | 1011.4 |
| 20260505031607 | 52 | 286 | 1.0 | 3.0 | 0.00 | 0.02 | 0.02 | 75 | 1003.3 |
| 20260505031526 | 53 | 253 | 1.0 | 3.0 | 0.00 | 0.02 | 0.02 | 75 | 1011.3 |
| 20260505031121 | 52 | 306 | 0.0 | 3.0 | 0.00 | 0.02 | 0.02 | 75 | 1003.1 |
| 20260505031053 | 53 | 306 | 1.0 | 3.0 | 0.00 | 0.02 | 0.02 | 74 | 1011.1 |
| 20260505030627 | 52 | 309 | 0.0 | 3.0 | 0.00 | 0.02 | 0.02 | 74 | 1003.0 |
| 20260505030552 | 53 | 309 | 1.0 | 3.0 | 0.00 | 0.02 | 0.02 | 74 | 1011.0 |
| 20260505030049 | 53 | 30 | 0.0 | 2.0 | 0.00 | 0.02 | 0.02 | 75 | 1010.8 |
| 20260505030020 | 52 | 30 | 0.0 | 1.0 | 0.00 | 0.02 | 0.02 | 75 | 1002.8 |
| 20260505025623 | 52 | 30 | 0.0 | 1.0 | 0.00 | 0.02 | 0.02 | 75 | 1002.6 |
| 20260505025544 | 53 | 30 | 0.0 | 1.0 | 0.00 | 0.02 | 0.02 | 75 | 1010.7 |
| 20260505025152 | 52 | 30 | 0.0 | 1.0 | 0.00 | 0.02 | 0.02 | 75 | 1002.6 |
| 20260505025113 | 53 | 30 | 0.0 | 1.0 | 0.00 | 0.02 | 0.02 | 74 | 1010.6 |
| 20260505024603 | 52 | 30 | 0.0 | 3.0 | 0.00 | 0.02 | 0.02 | 74 | 1002.4 |
| 20260505024546 | 53 | 30 | 0.0 | 3.0 | 0.00 | 0.02 | 0.02 | 74 | 1010.5 |
| 20260505024127 | 52 | 30 | 1.0 | 5.0 | 0.00 | 0.02 | 0.02 | 74 | 1002.2 |
| 20260505024041 | 53 | 30 | 2.0 | 5.0 | 0.00 | 0.02 | 0.02 | 74 | 1010.3 |
| 20260505023601 | 52 | 12 | 2.0 | 5.0 | 0.00 | 0.02 | 0.02 | 76 | 1002.3 |
| 20260505023536 | 53 | 17 | 3.0 | 5.0 | 0.00 | 0.02 | 0.02 | 78 | 1010.4 |
| 20260505023132 | 53 | 24 | 1.0 | 3.0 | 0.00 | 0.02 | 0.02 | 86 | 1002.2 |
| 20260505023031 | 53 | 15 | 1.0 | 3.0 | 0.00 | 0.02 | 0.02 | 86 | 1010.2 |
| 20260505022613 | 52 | 9 | 0.0 | 0.0 | 0.00 | 0.02 | 0.02 | 85 | 1001.7 |
| 20260505022556 | 53 | 9 | 0.0 | 0.0 | 0.00 | 0.02 | 0.02 | 84 | 1009.8 |
| 20260505022125 | 52 | 9 | 0.0 | 0.0 | 0.00 | 0.02 | 0.02 | 84 | 1001.8 |
| 20260505022055 | 53 | 9 | 0.0 | 0.0 | 0.00 | 0.02 | 0.02 | 84 | 1009.8 |
| 20260505021530 | 53 | 9 | 0.0 | 0.0 | 0.00 | 0.02 | 0.02 | 84 | 1009.8 |
| 20260505021506 | 52 | 9 | 0.0 | 0.0 | 0.00 | 0.02 | 0.02 | 84 | 1001.7 |
| 20260505021111 | 52 | 9 | 0.0 | 0.0 | 0.00 | 0.02 | 0.02 | 83 | 1001.6 |
| 20260505021036 | 53 | 9 | 0.0 | 0.0 | 0.00 | 0.02 | 0.02 | 83 | 1009.8 |
| 20260505020555 | 52 | 9 | 0.0 | 0.0 | 0.00 | 0.02 | 0.02 | 83 | 1001.7 |
| 20260505020534 | 53 | 9 | 0.0 | 0.0 | 0.00 | 0.02 | 0.02 | 83 | 1009.9 |
| 20260505020113 | 52 | 9 | 0.0 | 2.0 | 0.01 | 0.02 | 0.02 | 81 | 1001.9 |
| 20260505020031 | 53 | 9 | 0.0 | 2.0 | 0.01 | 0.02 | 0.02 | 81 | 1010.0 |
| 20260505015555 | 53 | 9 | 1.0 | 2.0 | 0.01 | 0.02 | 0.02 | 81 | 1010.0 |
| 20260505015518 | 52 | 9 | 0.0 | 1.0 | 0.01 | 0.02 | 0.02 | 80 | 1001.8 |
| 20260505015123 | 52 | 11 | 0.0 | 0.0 | 0.01 | 0.02 | 0.02 | 80 | 1001.8 |
| 20260505015051 | 53 | 11 | 0.0 | 0.0 | 0.01 | 0.02 | 0.02 | 80 | 1010.0 |
| 20260505014558 | 52 | 11 | 0.0 | 0.0 | 0.02 | 0.02 | 0.02 | 81 | 1001.5 |
| 20260505014528 | 53 | 11 | 0.0 | 0.0 | 0.02 | 0.02 | 0.02 | 81 | 1009.7 |
| 20260505014122 | 52 | 11 | 0.0 | 0.0 | 0.02 | 0.02 | 0.02 | 81 | 1001.3 |
| 20260505014053 | 53 | 11 | 0.0 | 0.0 | 0.02 | 0.02 | 0.02 | 81 | 1009.6 |
| 20260505013551 | 53 | 11 | 0.0 | 0.0 | 0.02 | 0.02 | 0.02 | 81 | 1009.5 |
| 20260505013523 | 52 | 11 | 0.0 | 0.0 | 0.02 | 0.02 | 0.02 | 81 | 1001.3 |
| 20260505013121 | 52 | 11 | 0.0 | 0.0 | 0.02 | 0.02 | 0.02 | 79 | 1001.3 |
| 20260505013044 | 53 | 11 | 0.0 | 0.0 | 0.02 | 0.02 | 0.02 | 79 | 1009.5 |
| 20260505012600 | 52 | 11 | 0.0 | 1.0 | 0.02 | 0.02 | 0.02 | 78 | 1001.4 |
| 20260505012542 | 53 | 11 | 0.0 | 1.0 | 0.02 | 0.02 | 0.02 | 78 | 1009.7 |
| 20260505012129 | 53 | 11 | 0.0 | 2.0 | 0.02 | 0.02 | 0.02 | 77 | 1001.3 |
| 20260505012036 | 53 | 11 | 0.0 | 2.0 | 0.02 | 0.02 | 0.02 | 76 | 1009.6 |
| 20260505011606 | 53 | 11 | 0.0 | 3.0 | 0.02 | 0.02 | 0.02 | 76 | 1001.2 |
| 20260505011530 | 53 | 11 | 1.0 | 3.0 | 0.02 | 0.02 | 0.02 | 75 | 1009.5 |
| 20260505011135 | 53 | 9 | 1.0 | 3.0 | 0.02 | 0.02 | 0.02 | 76 | 1001.2 |
| 20260505011118 | 54 | 9 | 2.0 | 3.0 | 0.02 | 0.02 | 0.02 | 76 | 1009.4 |
| 20260505010215 | 55 | 338 | 0.0 | 2.0 | 0.01 | 0.01 | 0.01 | 72 | 1009.4 |
| 20260505005552 | 55 | 305 | 0.0 | 2.0 | 0.01 | 0.01 | 0.01 | 69 | 1001.4 |
| 20260505005535 | 56 | 305 | 1.0 | 2.0 | 0.01 | 0.01 | 0.01 | 68 | 1009.6 |
| 20260505005128 | 56 | 305 | 0.0 | 2.0 | 0.01 | 0.01 | 0.01 | 65 | 1009.8 |
| 20260505004615 | 57 | 305 | 0.0 | 4.0 | 0.00 | 0.00 | 0.00 | 59 | 1002.0 |
| 20260505004552 | 57 | 305 | 0.0 | 4.0 | 0.00 | 0.00 | 0.00 | 59 | 1010.3 |
| 20260505004044 | 58 | 321 | 1.0 | 4.0 | 0.00 | 0.00 | 0.00 | 55 | 1002.1 |
| 20260505004027 | 59 | 313 | 2.0 | 4.0 | 0.00 | 0.00 | 0.00 | 55 | 1010.4 |
| 20260505003545 | 60 | 71 | 1.0 | 8.0 | 0.00 | 0.00 | 0.00 | 50 | 1010.2 |
| 20260505003515 | 59 | 71 | 1.0 | 8.0 | 0.00 | 0.00 | 0.00 | 50 | 1002.0 |
| 20260505003103 | 60 | 286 | 3.0 | 8.0 | 0.00 | 0.00 | 0.00 | 46 | 1001.8 |
| 20260505003042 | 61 | 273 | 4.0 | 8.0 | 0.00 | 0.00 | 0.00 | 45 | 1010.1 |
| 20260505002630 | 61 | 312 | 2.0 | 8.0 | 0.00 | 0.00 | 0.00 | 41 | 1001.3 |
| 20260505002536 | 61 | 307 | 2.0 | 8.0 | 0.00 | 0.00 | 0.00 | 41 | 1009.7 |
| 20260505002105 | 61 | 310 | 3.0 | 8.0 | 0.00 | 0.00 | 0.00 | 40 | 1001.2 |
| 20260505002032 | 62 | 355 | 3.0 | 8.0 | 0.00 | 0.00 | 0.00 | 40 | 1009.5 |
| 20260505001635 | 61 | 259 | 2.0 | 8.0 | 0.00 | 0.00 | 0.00 | 40 | 1001.1 |
| 20260505001540 | 62 | 296 | 3.0 | 8.0 | 0.00 | 0.00 | 0.00 | 39 | 1009.2 |
| 20260505001035 | 62 | 15 | 1.0 | 4.0 | 0.00 | 0.00 | 0.00 | 38 | 1009.1 |
| 20260505001017 | 62 | 19 | 1.0 | 5.0 | 0.00 | 0.00 | 0.00 | 37 | 1000.9 |
| 20260505000538 | 62 | 53 | 2.0 | 5.0 | 0.00 | 0.00 | 0.00 | 37 | 1009.0 |
| 20260505000138 | 62 | 35 | 2.0 | 4.0 | 0.00 | 0.00 | 0.00 | 37 | 1000.7 |
| 20260505000038 | 63 | 37 | 2.0 | 4.0 | 0.00 | 0.00 | 0.00 | 37 | 1008.9 |
| 20260504235615 | 63 | 34 | 0.0 | 4.0 | 0.00 | 0.00 | 0.00 | 37 | 1008.8 |
| 20260504235045 | 63 | 298 | 2.0 | 3.0 | 0.00 | 0.00 | 0.00 | 37 | 1009.0 |
| 20260504235015 | 62 | 309 | 1.0 | 3.0 | 0.00 | 0.00 | 0.00 | 37 | 1000.7 |
| 20260504234616 | 62 | 319 | 0.0 | 5.0 | 0.00 | 0.00 | 0.00 | 37 | 1000.5 |
| 20260504234126 | 62 | 326 | 0.0 | 5.0 | 0.00 | 0.00 | 0.00 | 36 | 1000.5 |
| 20260504234100 | 63 | 317 | 1.0 | 5.0 | 0.00 | 0.00 | 0.00 | 36 | 1008.8 |
| 20260504233642 | 63 | 288 | 1.0 | 4.0 | 0.00 | 0.00 | 0.00 | 37 | 1000.5 |
| 20260504233605 | 63 | 174 | 1.0 | 4.0 | 0.00 | 0.00 | 0.00 | 37 | 1008.8 |
| 20260504233111 | 63 | 300 | 1.0 | 4.0 | 0.00 | 0.00 | 0.00 | 36 | 1000.5 |
| 20260504233040 | 63 | 300 | 1.0 | 6.0 | 0.00 | 0.00 | 0.00 | 36 | 1008.8 |
| 20260504232633 | 63 | 38 | 2.0 | 6.0 | 0.00 | 0.00 | 0.00 | 36 | 1000.5 |
| 20260504232536 | 63 | 37 | 2.0 | 6.0 | 0.00 | 0.00 | 0.00 | 36 | 1008.8 |
| 20260504232110 | 63 | 336 | 1.0 | 9.0 | 0.00 | 0.00 | 0.00 | 36 | 1000.2 |
| 20260504232033 | 64 | 309 | 2.0 | 10.0 | 0.00 | 0.00 | 0.00 | 36 | 1008.6 |
| 20260504231530 | 64 | 360 | 4.0 | 11.0 | 0.00 | 0.00 | 0.00 | 35 | 1008.5 |
| 20260504231501 | 64 | 274 | 3.0 | 11.0 | 0.00 | 0.00 | 0.00 | 35 | 1000.2 |
| 20260504231108 | 64 | 313 | 4.0 | 11.0 | 0.00 | 0.00 | 0.00 | 34 | 1000.1 |
| 20260504231035 | 64 | 27 | 5.0 | 11.0 | 0.00 | 0.00 | 0.00 | 34 | 1008.5 |
| 20260504230642 | 64 | 296 | 4.0 | 9.0 | 0.00 | 0.00 | 0.00 | 33 | 999.9 |
| 20260504230606 | 65 | 17 | 3.0 | 9.0 | 0.00 | 0.00 | 0.00 | 33 | 1008.2 |
| 20260504230109 | 64 | 36 | 3.0 | 11.0 | 0.00 | 0.00 | 0.00 | 33 | 999.6 |
| 20260504230044 | 65 | 67 | 4.0 | 11.0 | 0.00 | 0.00 | 0.00 | 33 | 1008.0 |
| 20260504225632 | 64 | 37 | 4.0 | 9.0 | 0.00 | 0.00 | 0.00 | 32 | 999.5 |
| 20260504225539 | 65 | 65 | 5.0 | 12.0 | 0.00 | 0.00 | 0.00 | 32 | 1008.0 |
| 20260504225107 | 64 | 355 | 2.0 | 12.0 | 0.00 | 0.00 | 0.00 | 32 | 999.4 |
| 20260504225034 | 65 | 60 | 2.0 | 12.0 | 0.00 | 0.00 | 0.00 | 33 | 1007.8 |
| 20260504224642 | 64 | 59 | 2.0 | 11.0 | 0.00 | 0.00 | 0.00 | 32 | 999.5 |
| 20260504224600 | 65 | 61 | 3.0 | 11.0 | 0.00 | 0.00 | 0.00 | 32 | 1007.9 |
| 20260504224053 | 64 | 69 | 5.0 | 14.0 | 0.00 | 0.00 | 0.00 | 33 | 999.6 |
| 20260504224034 | 65 | 74 | 5.0 | 14.0 | 0.00 | 0.00 | 0.00 | 33 | 1008.0 |
| 20260504223621 | 64 | 51 | 4.0 | 14.0 | 0.00 | 0.00 | 0.00 | 33 | 999.5 |
| 20260504223533 | 65 | 74 | 4.0 | 14.0 | 0.00 | 0.00 | 0.00 | 33 | 1007.9 |
| 20260504223104 | 65 | 46 | 5.0 | 13.0 | 0.00 | 0.00 | 0.00 | 32 | 999.3 |
| 20260504223032 | 65 | 72 | 6.0 | 13.0 | 0.00 | 0.00 | 0.00 | 32 | 1007.9 |
| 20260504222624 | 64 | 88 | 4.0 | 13.0 | 0.00 | 0.00 | 0.00 | 32 | 999.4 |
| 20260504222529 | 65 | 355 | 4.0 | 13.0 | 0.00 | 0.00 | 0.00 | 32 | 1007.9 |
| 20260504222054 | 65 | 54 | 5.0 | 11.0 | 0.00 | 0.00 | 0.00 | 32 | 1007.8 |
| 20260504222028 | 64 | 41 | 5.0 | 11.0 | 0.00 | 0.00 | 0.00 | 32 | 999.3 |
| 20260504221549 | 65 | 355 | 4.0 | 11.0 | 0.00 | 0.00 | 0.00 | 32 | 1007.7 |
| 20260504221504 | 64 | 355 | 5.0 | 11.0 | 0.00 | 0.00 | 0.00 | 32 | 999.1 |
| 20260504221114 | 64 | 46 | 5.0 | 10.0 | 0.00 | 0.00 | 0.00 | 32 | 999.3 |
| 20260504221047 | 65 | 40 | 6.0 | 10.0 | 0.00 | 0.00 | 0.00 | 32 | 1007.8 |
| 20260504220545 | 64 | 298 | 4.0 | 11.0 | 0.00 | 0.00 | 0.00 | 31 | 999.2 |
| 20260504220527 | 65 | 67 | 4.0 | 11.0 | 0.00 | 0.00 | 0.00 | 31 | 1007.8 |
| 20260504220123 | 64 | 311 | 5.0 | 11.0 | 0.00 | 0.00 | 0.00 | 31 | 999.0 |
| 20260504220052 | 65 | 34 | 5.0 | 11.0 | 0.00 | 0.00 | 0.00 | 31 | 1007.5 |
| 20260504215547 | 65 | 360 | 5.0 | 12.0 | 0.00 | 0.00 | 0.00 | 30 | 1007.5 |
| 20260504215523 | 65 | 35 | 5.0 | 12.0 | 0.00 | 0.00 | 0.00 | 30 | 998.9 |
| 20260504215133 | 66 | 297 | 4.0 | 13.0 | 0.00 | 0.00 | 0.00 | 30 | 998.7 |
| 20260504215040 | 66 | 56 | 4.0 | 13.0 | 0.00 | 0.00 | 0.00 | 29 | 1007.2 |
| 20260504214601 | 67 | 15 | 5.0 | 13.0 | 0.00 | 0.00 | 0.00 | 28 | 998.6 |
| 20260504214534 | 67 | 28 | 5.0 | 13.0 | 0.00 | 0.00 | 0.00 | 27 | 1007.2 |
| 20260504214130 | 67 | 30 | 4.0 | 8.0 | 0.00 | 0.00 | 0.00 | 25 | 998.4 |
| 20260504214029 | 68 | 11 | 4.0 | 8.0 | 0.00 | 0.00 | 0.00 | 25 | 1007.1 |
| 20260504213614 | 67 | 37 | 1.0 | 9.0 | 0.00 | 0.00 | 0.00 | 25 | 998.4 |
| 20260504213600 | 68 | 44 | 2.0 | 9.0 | 0.00 | 0.00 | 0.00 | 25 | 1007.0 |
| 20260504213125 | 67 | 25 | 2.0 | 9.0 | 0.00 | 0.00 | 0.00 | 25 | 998.6 |
| 20260504213035 | 68 | 26 | 3.0 | 9.0 | 0.00 | 0.00 | 0.00 | 25 | 1007.2 |
| 20260504212605 | 67 | 23 | 2.0 | 6.0 | 0.00 | 0.00 | 0.00 | 25 | 998.8 |
| 20260504212531 | 68 | 22 | 2.0 | 6.0 | 0.00 | 0.00 | 0.00 | 25 | 1007.3 |
| 20260504212132 | 67 | 5 | 3.0 | 10.0 | 0.00 | 0.00 | 0.00 | 26 | 998.8 |
| 20260504212100 | 68 | 18 | 3.0 | 10.0 | 0.00 | 0.00 | 0.00 | 25 | 1007.4 |
| 20260504211535 | 68 | 44 | 4.0 | 10.0 | 0.00 | 0.00 | 0.00 | 24 | 1007.5 |
| 20260504211509 | 68 | 33 | 3.0 | 10.0 | 0.00 | 0.00 | 0.00 | 24 | 998.8 |
| 20260504211110 | 68 | 32 | 5.0 | 9.0 | 0.00 | 0.00 | 0.00 | 25 | 998.9 |
| 20260504211028 | 68 | 17 | 5.0 | 9.0 | 0.00 | 0.00 | 0.00 | 25 | 1007.6 |
| 20260504210551 | 68 | 16 | 4.0 | 11.0 | 0.00 | 0.00 | 0.00 | 25 | 1007.7 |
| 20260504210515 | 68 | 5 | 4.0 | 11.0 | 0.00 | 0.00 | 0.00 | 25 | 999.1 |
| 20260504210119 | 68 | 333 | 3.0 | 11.0 | 0.00 | 0.00 | 0.00 | 25 | 999.1 |
| 20260504210041 | 69 | 355 | 4.0 | 11.0 | 0.00 | 0.00 | 0.00 | 25 | 1007.7 |
| 20260504205557 | 68 | 24 | 2.0 | 9.0 | 0.00 | 0.00 | 0.00 | 26 | 999.2 |
| 20260504205535 | 69 | 33 | 3.0 | 9.0 | 0.00 | 0.00 | 0.00 | 25 | 1007.8 |
| 20260504205132 | 69 | 295 | 3.0 | 9.0 | 0.00 | 0.00 | 0.00 | 25 | 999.1 |
| 20260504205041 | 69 | 331 | 4.0 | 9.0 | 0.00 | 0.00 | 0.00 | 25 | 1007.7 |
| 20260504204536 | 69 | 281 | 4.0 | 9.0 | 0.00 | 0.00 | 0.00 | 26 | 1007.9 |
| 20260504204511 | 69 | 42 | 3.0 | 9.0 | 0.00 | 0.00 | 0.00 | 26 | 999.2 |
| 20260504204115 | 69 | 32 | 3.0 | 11.0 | 0.00 | 0.00 | 0.00 | 26 | 999.1 |
| 20260504204034 | 69 | 296 | 4.0 | 11.0 | 0.00 | 0.00 | 0.00 | 26 | 1007.8 |
| 20260504203649 | 69 | 343 | 4.0 | 11.0 | 0.00 | 0.00 | 0.00 | 25 | 999.1 |
| 20260504203604 | 69 | 31 | 5.0 | 11.0 | 0.00 | 0.00 | 0.00 | 25 | 1007.8 |
| 20260504203117 | 69 | 5 | 4.0 | 11.0 | 0.00 | 0.00 | 0.00 | 25 | 999.2 |
| 20260504203040 | 70 | 24 | 4.0 | 11.0 | 0.00 | 0.00 | 0.00 | 25 | 1007.8 |
| 20260504202537 | 70 | 25 | 5.0 | 11.0 | 0.00 | 0.00 | 0.00 | 25 | 1007.8 |
| 20260504202501 | 69 | 46 | 3.0 | 10.0 | 0.00 | 0.00 | 0.00 | 25 | 999.2 |
| 20260504202108 | 68 | 32 | 2.0 | 10.0 | 0.00 | 0.00 | 0.00 | 26 | 999.2 |
| 20260504202032 | 68 | 32 | 3.0 | 10.0 | 0.00 | 0.00 | 0.00 | 26 | 1007.8 |
| 20260504201638 | 67 | 45 | 2.0 | 10.0 | 0.00 | 0.00 | 0.00 | 27 | 999.3 |
| 20260504201557 | 68 | 360 | 3.0 | 10.0 | 0.00 | 0.00 | 0.00 | 27 | 1007.9 |
| 20260504201057 | 67 | 360 | 3.0 | 11.0 | 0.00 | 0.00 | 0.00 | 28 | 999.3 |
| 20260504201029 | 67 | 53 | 3.0 | 11.0 | 0.00 | 0.00 | 0.00 | 28 | 1007.9 |
| 20260504200631 | 66 | 41 | 6.0 | 11.0 | 0.00 | 0.00 | 0.00 | 28 | 999.3 |
| 20260504200553 | 67 | 36 | 6.0 | 11.0 | 0.00 | 0.00 | 0.00 | 28 | 1008.0 |
| 20260504200106 | 66 | 88 | 2.0 | 9.0 | 0.00 | 0.00 | 0.00 | 29 | 999.3 |
| 20260504200049 | 66 | 55 | 4.0 | 9.0 | 0.00 | 0.00 | 0.00 | 28 | 1008.0 |
| 20260504195615 | 65 | 360 | 3.0 | 9.0 | 0.00 | 0.00 | 0.00 | 29 | 999.4 |
| 20260504195556 | 66 | 309 | 3.0 | 9.0 | 0.00 | 0.00 | 0.00 | 30 | 1008.1 |
| 20260504195122 | 65 | 261 | 2.0 | 8.0 | 0.00 | 0.00 | 0.00 | 31 | 999.5 |
| 20260504195042 | 65 | 297 | 3.0 | 8.0 | 0.00 | 0.00 | 0.00 | 31 | 1008.1 |
| 20260504194557 | 64 | 317 | 3.0 | 9.0 | 0.00 | 0.00 | 0.00 | 31 | 999.4 |
| 20260504194539 | 65 | 360 | 3.0 | 9.0 | 0.00 | 0.00 | 0.00 | 31 | 1008.0 |
| 20260504194129 | 64 | 56 | 1.0 | 8.0 | 0.00 | 0.00 | 0.00 | 32 | 999.6 |
| 20260504194036 | 64 | 26 | 2.0 | 8.0 | 0.00 | 0.00 | 0.00 | 32 | 1008.3 |
| 20260504193605 | 63 | 47 | 2.0 | 10.0 | 0.00 | 0.00 | 0.00 | 32 | 999.8 |
| 20260504193531 | 64 | 360 | 3.0 | 10.0 | 0.00 | 0.00 | 0.00 | 32 | 1008.5 |
| 20260504193142 | 63 | 37 | 3.0 | 10.0 | 0.00 | 0.00 | 0.00 | 33 | 999.9 |
| 20260504193034 | 64 | 309 | 4.0 | 13.0 | 0.00 | 0.00 | 0.00 | 34 | 1008.6 |
| 20260504192651 | 63 | 46 | 1.0 | 15.0 | 0.00 | 0.00 | 0.00 | 33 | 1000.2 |
| 20260504192535 | 64 | 55 | 3.0 | 15.0 | 0.00 | 0.00 | 0.00 | 32 | 1008.8 |
| 20260504192056 | 65 | 160 | 9.0 | 15.0 | 0.00 | 0.00 | 0.00 | 34 | 1000.1 |
| 20260504192030 | 66 | 54 | 9.0 | 14.0 | 0.00 | 0.00 | 0.00 | 33 | 1008.9 |
| 20260504191626 | 67 | 78 | 1.0 | 8.0 | 0.00 | 0.00 | 0.00 | 27 | 1000.3 |
| 20260504191556 | 67 | 188 | 2.0 | 8.0 | 0.00 | 0.00 | 0.00 | 27 | 1008.8 |
| 20260504191034 | 68 | 183 | 3.0 | 8.0 | 0.00 | 0.00 | 0.00 | 25 | 1008.5 |
| 20260504191007 | 68 | 288 | 3.0 | 8.0 | 0.00 | 0.00 | 0.00 | 25 | 999.8 |
| 20260504190614 | 68 | 166 | 1.0 | 5.0 | 0.00 | 0.00 | 0.00 | 23 | 999.6 |
| 20260504190534 | 69 | 284 | 1.0 | 5.0 | 0.00 | 0.00 | 0.00 | 24 | 1008.4 |
| 20260504190149 | 68 | 134 | 2.0 | 5.0 | 0.00 | 0.00 | 0.00 | 24 | 999.4 |
| 20260504190044 | 69 | 100 | 1.0 | 5.0 | 0.00 | 0.00 | 0.00 | 24 | 1008.1 |
| 20260504185608 | 69 | 151 | 1.0 | 5.0 | 0.00 | 0.00 | 0.00 | 23 | 999.3 |
| 20260504185542 | 70 | 158 | 2.0 | 5.0 | 0.00 | 0.00 | 0.00 | 23 | 1008.0 |
| 20260504185146 | 69 | 119 | 1.0 | 5.0 | 0.00 | 0.00 | 0.00 | 22 | 999.3 |
| 20260504185051 | 70 | 150 | 1.0 | 5.0 | 0.00 | 0.00 | 0.00 | 21 | 1008.1 |
| 20260504184610 | 70 | 301 | 1.0 | 5.0 | 0.00 | 0.00 | 0.00 | 21 | 999.2 |
| 20260504184549 | 70 | 301 | 1.0 | 5.0 | 0.00 | 0.00 | 0.00 | 21 | 1008.0 |
| 20260504184130 | 70 | 38 | 1.0 | 4.0 | 0.00 | 0.00 | 0.00 | 22 | 999.2 |
| 20260504184027 | 71 | 355 | 2.0 | 6.0 | 0.00 | 0.00 | 0.00 | 22 | 1007.9 |
| 20260504183607 | 70 | 65 | 1.0 | 6.0 | 0.00 | 0.00 | 0.00 | 22 | 999.1 |
| 20260504183549 | 71 | 65 | 1.0 | 6.0 | 0.00 | 0.00 | 0.00 | 22 | 1007.9 |
| 20260504183134 | 70 | 20 | 1.0 | 5.0 | 0.00 | 0.00 | 0.00 | 21 | 999.2 |
| 20260504183043 | 71 | 5 | 2.0 | 5.0 | 0.00 | 0.00 | 0.00 | 21 | 1007.9 |
| 20260504182610 | 71 | 46 | 0.0 | 5.0 | 0.00 | 0.00 | 0.00 | 22 | 999.2 |
| 20260504182537 | 71 | 46 | 1.0 | 5.0 | 0.00 | 0.00 | 0.00 | 22 | 1007.9 |
| 20260504182034 | 71 | 24 | 2.0 | 5.0 | 0.00 | 0.00 | 0.00 | 22 | 1007.9 |
| 20260504182006 | 71 | 24 | 2.0 | 5.0 | 0.00 | 0.00 | 0.00 | 22 | 999.2 |
| 20260504181610 | 71 | 18 | 1.0 | 5.0 | 0.00 | 0.00 | 0.00 | 23 | 999.1 |
| 20260504181532 | 71 | 40 | 1.0 | 5.0 | 0.00 | 0.00 | 0.00 | 23 | 1007.9 |
| 20260504181145 | 70 | 252 | 0.0 | 5.0 | 0.00 | 0.00 | 0.00 | 22 | 999.2 |
| 20260504181101 | 71 | 288 | 1.0 | 5.0 | 0.00 | 0.00 | 0.00 | 22 | 1007.9 |
| 20260504180601 | 71 | 306 | 2.0 | 4.0 | 0.00 | 0.00 | 0.00 | 22 | 999.2 |
| 20260504180538 | 71 | 311 | 2.0 | 4.0 | 0.00 | 0.00 | 0.00 | 21 | 1008.0 |
| 20260504180127 | 71 | 32 | 1.0 | 7.0 | 0.00 | 0.00 | 0.00 | 20 | 999.3 |
| 20260504180035 | 71 | 30 | 2.0 | 7.0 | 0.00 | 0.00 | 0.00 | 20 | 1008.0 |
| 20260504175559 | 72 | 19 | 1.0 | 6.0 | 0.00 | 0.00 | 0.00 | 21 | 1008.0 |
| 20260504175516 | 71 | 19 | 1.0 | 6.0 | 0.00 | 0.00 | 0.00 | 21 | 999.3 |
| 20260504175112 | 71 | 40 | 2.0 | 7.0 | 0.00 | 0.00 | 0.00 | 23 | 999.3 |
| 20260504175034 | 72 | 292 | 3.0 | 7.0 | 0.00 | 0.00 | 0.00 | 22 | 1008.0 |
| 20260504174529 | 72 | 305 | 3.0 | 9.0 | 0.00 | 0.00 | 0.00 | 21 | 1008.1 |
| 20260504174504 | 72 | 25 | 2.0 | 9.0 | 0.00 | 0.00 | 0.00 | 21 | 999.4 |
| 20260504174114 | 72 | 278 | 2.0 | 9.0 | 0.00 | 0.00 | 0.00 | 21 | 999.5 |
| 20260504174049 | 73 | 308 | 3.0 | 9.0 | 0.00 | 0.00 | 0.00 | 20 | 1008.2 |
| 20260504173545 | 73 | 26 | 3.0 | 6.0 | 0.00 | 0.00 | 0.00 | 21 | 1008.3 |
| 20260504173505 | 73 | 344 | 3.0 | 6.0 | 0.00 | 0.00 | 0.00 | 21 | 999.7 |
| 20260504173117 | 73 | 39 | 1.0 | 6.0 | 0.00 | 0.00 | 0.00 | 21 | 999.8 |
| 20260504173039 | 73 | 28 | 2.0 | 6.0 | 0.00 | 0.00 | 0.00 | 20 | 1008.4 |
| 20260504172535 | 73 | 28 | 2.0 | 8.0 | 0.00 | 0.00 | 0.00 | 20 | 1008.5 |
| 20260504172506 | 73 | 38 | 1.0 | 8.0 | 0.00 | 0.00 | 0.00 | 20 | 999.9 |
| 20260504172114 | 73 | 39 | 3.0 | 8.0 | 0.00 | 0.00 | 0.00 | 19 | 999.9 |
| 20260504172031 | 74 | 31 | 4.0 | 8.0 | 0.00 | 0.00 | 0.00 | 20 | 1008.6 |
| 20260504171546 | 73 | 331 | 1.0 | 4.0 | 0.00 | 0.00 | 0.00 | 21 | 1000.0 |
| 20260504171528 | 73 | 355 | 2.0 | 4.0 | 0.00 | 0.00 | 0.00 | 21 | 1008.6 |
| 20260504171116 | 72 | 17 | 1.0 | 6.0 | 0.00 | 0.00 | 0.00 | 21 | 1000.1 |
| 20260504171052 | 73 | 258 | 1.0 | 6.0 | 0.00 | 0.00 | 0.00 | 22 | 1008.6 |
| 20260504170551 | 72 | 340 | 2.0 | 8.0 | 0.00 | 0.00 | 0.00 | 20 | 1008.6 |
| 20260504170505 | 72 | 313 | 2.0 | 8.0 | 0.00 | 0.00 | 0.00 | 20 | 1000.0 |
| 20260504170114 | 72 | 300 | 3.0 | 8.0 | 0.00 | 0.00 | 0.00 | 21 | 1000.1 |
| 20260504160118 | 68 | 292 | 1.0 | 4.0 | 0.00 | 0.00 | 0.00 | 26 | 1000.8 |
| 20260504151146 | 65 | 204 | 0.0 | 2.0 | 0.00 | 0.00 | 0.00 | 27 | 1001.2 |
| 20260504151053 | 65 | 200 | 1.0 | 2.0 | 0.00 | 0.00 | 0.00 | 27 | 1009.5 |
| 20260504150652 | 64 | 225 | 0.0 | 3.0 | 0.00 | 0.00 | 0.00 | 27 | 1001.3 |
| 20260504150548 | 65 | 238 | 0.0 | 3.0 | 0.00 | 0.00 | 0.00 | 28 | 1009.5 |
| 20260504150108 | 64 | 207 | 1.0 | 3.0 | 0.00 | 0.00 | 0.00 | 28 | 1001.3 |
| 20260504141053 | 54 | 215 | 1.0 | 4.0 | 0.00 | 0.00 | 0.00 | 40 | 1001.5 |
| 20260504141036 | 54 | 215 | 2.0 | 4.0 | 0.00 | 0.00 | 0.00 | 40 | 1009.6 |
| 20260504140616 | 53 | 207 | 1.0 | 3.0 | 0.00 | 0.00 | 0.00 | 41 | 1001.5 |
| 20260504140532 | 54 | 209 | 1.0 | 3.0 | 0.00 | 0.00 | 0.00 | 41 | 1009.6 |
| 20260504140152 | 53 | 223 | 1.0 | 4.0 | 0.00 | 0.00 | 0.00 | 42 | 1001.6 |
| 20260504130542 | 50 | 208 | 0.0 | 4.0 | 0.00 | 0.00 | 0.00 | 46 | 1009.5 |
| 20260504130514 | 49 | 208 | 0.0 | 4.0 | 0.00 | 0.00 | 0.00 | 46 | 1001.4 |
| 20260504130118 | 49 | 215 | 1.0 | 4.0 | 0.00 | 0.00 | 0.00 | 46 | 1001.3 |